Terminal Aerodrome Forecast
Issued by NWS Quad Cities IA IL

Home | Current Version | Previous Version | Text Only | Print | Product List | Glossary On
Versions: 1 2 3 4 5 6 7 8 9 10 11 12 13 14 15 16 17
515
FTUS43 KDVN 220326 AAA
TAFMLI
TAF AMD
KMLI 220326Z 2203/2224 21009KT P6SM VCTS SCT030CB OVC150
      TEMPO 2203/2205 VRB25G35KT 1SM +TSRA BR BKN014CB OVC030
     FM220900 19004KT 6SM BR VCTS SCT040CB BKN120
     FM221500 20006KT P6SM SCT040 BKN120=

USA.gov is the U.S. government's official web portal to all federal, state and local government web resources and services.